createdAt,value
2023-10-23T00:01:23.001Z,82.25
2023-10-23T00:03:49.982Z,82.10
2023-10-23T00:06:16.607Z,82.09
2023-10-23T00:08:43.025Z,81.59
2023-10-23T00:11:09.413Z,81.86
2023-10-23T00:13:35.849Z,81.80
2023-10-23T00:16:02.281Z,82.43
2023-10-23T00:18:28.723Z,82.98
2023-10-23T00:20:55.158Z,82.38
2023-10-23T00:23:21.566Z,82.56
2023-10-23T00:25:47.953Z,82.79
2023-10-23T00:28:14.322Z,82.88
2023-10-23T00:30:40.789Z,83.04
2023-10-23T00:33:07.291Z,82.83
2023-10-23T00:35:33.722Z,82.51
2023-10-23T00:38:00.315Z,82.29
2023-10-23T00:40:26.683Z,82.25
2023-10-23T00:42:53.233Z,82.39
2023-10-23T00:45:20.445Z,82.76
2023-10-23T00:47:47.454Z,82.37
2023-10-23T00:50:14.228Z,82.01
2023-10-23T00:52:40.752Z,82.54
2023-10-23T00:55:07.494Z,83.41
2023-10-23T00:57:34.077Z,82.39
2023-10-23T01:00:00.748Z,81.08
2023-10-23T01:02:27.216Z,81.42
2023-10-23T01:04:53.790Z,82.49
2023-10-23T01:07:20.241Z,82.97
2023-10-23T01:09:46.704Z,82.83
2023-10-23T01:12:13.112Z,82.32
2023-10-23T01:14:39.643Z,82.53
2023-10-23T01:17:06.311Z,82.84
2023-10-23T01:19:32.668Z,82.75
2023-10-23T01:21:59.041Z,82.78
2023-10-23T01:24:27.049Z,82.58
2023-10-23T01:26:53.432Z,82.97
2023-10-23T01:29:19.806Z,83.03
2023-10-23T01:31:46.234Z,82.05
2023-10-23T01:34:12.612Z,81.46
2023-10-23T01:36:39.101Z,81.35
2023-10-23T01:39:05.645Z,82.53
2023-10-23T01:41:31.991Z,82.51
2023-10-23T01:43:58.418Z,82.62
2023-10-23T01:46:24.864Z,83.17
2023-10-23T01:48:51.274Z,83.04
2023-10-23T01:51:17.945Z,83.81
2023-10-23T01:53:44.336Z,82.67
2023-10-23T01:56:10.707Z,82.99
2023-10-23T01:58:37.133Z,83.13
2023-10-23T02:01:03.661Z,83.23
2023-10-23T02:03:32.867Z,83.90
2023-10-23T02:05:59.585Z,84.56
2023-10-23T02:08:26.064Z,84.01
2023-10-23T02:10:52.566Z,82.91
2023-10-23T02:13:20.030Z,83.32
2023-10-23T02:15:46.431Z,82.83
2023-10-23T02:18:13.130Z,82.53
2023-10-23T02:20:39.530Z,82.49
2023-10-23T02:23:05.964Z,82.25
2023-10-23T02:25:32.338Z,81.68
2023-10-23T02:27:58.807Z,81.76
2023-10-23T02:30:25.313Z,82.08
2023-10-23T02:32:51.778Z,82.00
2023-10-23T02:35:18.242Z,82.30
2023-10-23T02:37:44.611Z,82.94
2023-10-23T02:40:12.790Z,82.60
2023-10-23T02:42:39.349Z,83.23
2023-10-23T02:45:06.560Z,82.48
2023-10-23T02:47:32.956Z,82.41
2023-10-23T02:49:59.366Z,81.80
2023-10-23T02:52:26.871Z,81.87
2023-10-23T02:54:53.366Z,82.82
2023-10-23T02:57:19.983Z,83.02
2023-10-23T02:59:48.155Z,82.53
2023-10-23T03:02:15.872Z,82.35
2023-10-23T03:04:42.413Z,81.78
2023-10-23T03:07:09.503Z,81.74
2023-10-23T03:09:36.335Z,82.28
2023-10-23T03:12:03.035Z,82.68
2023-10-23T03:14:29.382Z,83.35
2023-10-23T03:16:55.983Z,83.10
2023-10-23T03:19:25.467Z,81.73
2023-10-23T03:21:53.036Z,81.62
2023-10-23T03:24:19.779Z,82.00
2023-10-23T03:26:46.295Z,81.52
2023-10-23T03:29:12.658Z,82.21
2023-10-23T03:31:39.262Z,82.97
2023-10-23T03:34:05.811Z,83.05
2023-10-23T03:36:32.365Z,82.85
2023-10-23T03:38:58.806Z,81.87
2023-10-23T03:41:26.866Z,82.06
2023-10-23T03:43:53.364Z,82.09
2023-10-23T03:46:19.766Z,82.22
2023-10-23T03:48:46.267Z,82.40
2023-10-23T03:51:12.738Z,82.33
2023-10-23T03:53:39.168Z,81.33
2023-10-23T03:56:07.171Z,82.32
2023-10-23T03:58:33.711Z,83.00
2023-10-23T04:01:00.267Z,83.09
2023-10-23T04:03:26.790Z,83.00
2023-10-23T04:05:53.737Z,83.36
2023-10-23T04:08:20.233Z,83.15
2023-10-23T04:10:50.011Z,82.96
2023-10-23T04:13:17.156Z,83.77
2023-10-23T04:15:58.168Z,83.26
2023-10-23T04:18:26.656Z,83.24
2023-10-23T04:21:08.060Z,83.66
2023-10-23T04:23:35.846Z,84.03
2023-10-23T04:26:03.002Z,84.28
2023-10-23T04:28:29.797Z,84.09
2023-10-23T04:30:59.091Z,84.04
2023-10-23T04:33:26.178Z,84.42
2023-10-23T04:35:58.284Z,84.13
2023-10-23T04:38:25.658Z,84.06
2023-10-23T04:40:54.197Z,83.52
2023-10-23T04:43:21.574Z,82.05
2023-10-23T04:45:49.665Z,82.85
2023-10-23T04:48:16.465Z,82.22
2023-10-23T04:50:43.231Z,81.81
2023-10-23T04:53:09.673Z,81.43
2023-10-23T04:55:39.708Z,81.67
2023-10-23T04:58:07.051Z,81.77
2023-10-23T05:00:38.849Z,82.34
2023-10-23T05:03:05.976Z,83.81
2023-10-23T05:05:33.211Z,83.25
2023-10-23T05:08:00.121Z,83.24
2023-10-23T05:10:26.618Z,82.35
2023-10-23T05:12:54.544Z,83.26
2023-10-23T05:15:21.106Z,83.37
2023-10-23T05:17:47.512Z,83.14
2023-10-23T05:20:14.013Z,83.32
2023-10-23T05:22:40.493Z,84.02
2023-10-23T05:25:07.390Z,84.23
2023-10-23T05:27:34.006Z,83.56
2023-10-23T05:30:00.458Z,83.12
2023-10-23T05:32:26.862Z,82.59
2023-10-23T05:34:53.314Z,82.07
2023-10-23T05:37:20.818Z,82.05
2023-10-23T05:39:47.250Z,81.56
2023-10-23T05:42:14.469Z,82.59
2023-10-23T05:44:40.815Z,83.04
2023-10-23T05:47:08.041Z,83.41
2023-10-23T05:49:35.483Z,83.14
2023-10-23T05:52:02.062Z,83.26
2023-10-23T05:54:28.480Z,83.01
2023-10-23T05:56:54.918Z,83.58
2023-10-23T05:59:21.273Z,83.04
2023-10-23T06:01:47.715Z,83.45
2023-10-23T06:04:14.137Z,83.29
2023-10-23T06:06:40.663Z,83.89
2023-10-23T06:09:07.365Z,84.16
2023-10-23T06:11:33.819Z,83.62
2023-10-23T06:14:00.173Z,83.72
2023-10-23T06:16:26.663Z,83.50
2023-10-23T06:18:53.267Z,83.71
2023-10-23T06:21:19.684Z,83.66
2023-10-23T06:23:46.081Z,83.14
2023-10-23T06:26:12.544Z,83.33
2023-10-23T06:28:39.131Z,82.51
2023-10-23T06:31:11.986Z,81.86
2023-10-23T06:33:45.658Z,81.86
2023-10-23T06:36:12.201Z,82.21
2023-10-23T06:38:39.008Z,82.49
2023-10-23T06:41:09.633Z,82.44
2023-10-23T06:43:38.215Z,82.96
2023-10-23T06:46:05.005Z,83.45
2023-10-23T06:48:32.114Z,83.17
2023-10-23T06:50:58.886Z,82.50
2023-10-23T06:53:25.337Z,83.68
2023-10-23T06:55:53.535Z,83.43
2023-10-23T06:58:20.925Z,83.75
2023-10-23T07:00:48.378Z,83.46
2023-10-23T07:03:15.325Z,83.35
2023-10-23T07:05:42.535Z,84.45
2023-10-23T07:08:09.517Z,84.34
2023-10-23T07:10:36.768Z,84.79
2023-10-23T07:13:07.933Z,85.57
2023-10-23T07:15:41.884Z,84.55
2023-10-23T07:18:11.231Z,83.86
2023-10-23T07:20:37.859Z,84.57
2023-10-23T07:23:04.273Z,84.45
2023-10-23T07:25:30.648Z,84.53
2023-10-23T07:27:57.026Z,84.67
2023-10-23T07:30:25.458Z,84.40
2023-10-23T07:32:52.098Z,84.20
2023-10-23T07:35:18.586Z,84.21
2023-10-23T07:37:45.092Z,84.59
2023-10-23T07:40:12.159Z,84.35
2023-10-23T07:42:39.016Z,83.98
2023-10-23T07:45:06.077Z,83.56
2023-10-23T07:47:32.502Z,82.81
2023-10-23T07:49:58.929Z,82.14
2023-10-23T07:52:25.321Z,80.75
2023-10-23T07:54:51.702Z,80.22
2023-10-23T07:57:18.098Z,79.76
2023-10-23T07:59:44.816Z,79.83
2023-10-23T08:02:11.331Z,80.09
2023-10-23T08:04:38.011Z,80.19
2023-10-23T08:07:04.781Z,81.18
2023-10-23T08:09:31.262Z,80.70
2023-10-23T08:11:57.674Z,80.75
2023-10-23T08:14:24.153Z,80.83
2023-10-23T08:16:54.403Z,80.14
2023-10-23T08:19:21.568Z,80.74
2023-10-23T08:21:49.164Z,80.98
2023-10-23T08:24:16.358Z,80.81
2023-10-23T08:26:42.733Z,80.51
2023-10-23T08:29:09.261Z,79.44
2023-10-23T08:31:40.046Z,79.86
2023-10-23T08:34:08.648Z,80.20
2023-10-23T08:36:35.847Z,80.46
2023-10-23T08:39:02.849Z,81.09
2023-10-23T08:41:29.726Z,81.05
2023-10-23T08:43:57.352Z,81.48
2023-10-23T08:46:28.453Z,80.71
2023-10-23T08:48:55.117Z,80.47
2023-10-23T08:51:22.207Z,80.49
2023-10-23T08:56:27.001Z,79.48
2023-10-23T08:58:59.545Z,80.00
2023-10-23T09:01:26.969Z,80.92
2023-10-23T09:04:03.750Z,81.14
2023-10-23T09:06:32.064Z,81.09
2023-10-23T09:08:58.918Z,81.89
2023-10-23T09:11:45.769Z,80.31
2023-10-23T09:14:24.527Z,79.75
2023-10-23T09:16:52.516Z,79.71
2023-10-23T09:19:26.803Z,79.65
2023-10-23T09:21:57.863Z,78.39
2023-10-23T09:24:24.843Z,79.41
2023-10-23T09:26:51.930Z,78.81
2023-10-23T09:29:25.608Z,78.56
2023-10-23T09:31:54.042Z,78.26
2023-10-23T09:34:22.267Z,78.48
2023-10-23T09:36:53.154Z,77.13
2023-10-23T09:39:22.537Z,78.22
2023-10-23T09:41:49.832Z,79.65
2023-10-23T09:44:16.855Z,79.12
2023-10-23T09:46:46.497Z,77.36
2023-10-23T09:49:13.252Z,77.10
2023-10-23T09:51:41.301Z,78.26
2023-10-23T09:54:21.679Z,78.92
2023-10-23T09:56:54.874Z,78.99
2023-10-23T09:59:35.920Z,77.32
2023-10-23T10:02:06.772Z,77.39
2023-10-23T10:05:09.772Z,78.06
2023-10-23T10:07:59.745Z,79.03
2023-10-23T10:10:27.719Z,78.50
2023-10-23T10:12:56.432Z,78.52
2023-10-23T10:15:24.708Z,77.93
2023-10-23T10:17:51.790Z,75.93
2023-10-23T10:20:22.904Z,76.00
2023-10-23T10:23:09.555Z,77.75
2023-10-23T10:25:37.147Z,77.94
2023-10-23T10:28:05.491Z,76.74
2023-10-23T10:30:42.162Z,76.34
2023-10-23T10:34:25.000Z,76.74
2023-10-23T10:36:08.383Z,76.82
2023-10-23T10:38:36.054Z,76.33
2023-10-23T10:41:04.010Z,78.51
2023-10-23T10:43:38.727Z,78.68
2023-10-23T10:46:25.928Z,79.63
2023-10-23T10:48:55.164Z,79.58
2023-10-23T10:51:22.868Z,79.67
2023-10-23T10:53:56.347Z,80.69
2023-10-23T10:56:22.755Z,82.35
2023-10-23T10:58:49.629Z,81.16
2023-10-23T11:01:16.250Z,79.96
2023-10-23T11:03:43.398Z,81.00
2023-10-23T11:06:10.251Z,81.87
2023-10-23T11:08:39.400Z,81.39
2023-10-23T11:11:07.281Z,81.27
2023-10-23T11:13:34.266Z,82.64
2023-10-23T11:16:01.192Z,80.73
2023-10-23T11:18:31.128Z,79.78
2023-10-23T11:21:01.396Z,79.64
2023-10-23T11:23:31.741Z,79.57
2023-10-23T11:25:58.968Z,80.12
2023-10-23T11:28:29.522Z,80.03
2023-10-23T11:30:59.339Z,79.24
2023-10-23T11:33:25.829Z,79.41
2023-10-23T11:35:55.610Z,78.11
2023-10-23T11:38:25.018Z,79.82
2023-10-23T11:40:52.236Z,79.03
2023-10-23T11:43:18.942Z,79.06
2023-10-23T11:45:46.967Z,79.67
2023-10-23T11:48:13.823Z,79.91
2023-10-23T11:50:41.569Z,79.11
2023-10-23T11:53:08.516Z,78.83
2023-10-23T11:55:38.026Z,79.58
2023-10-23T11:58:04.964Z,79.27
2023-10-23T12:00:35.358Z,78.70
2023-10-23T12:03:02.114Z,78.40
2023-10-23T12:05:28.623Z,79.06
2023-10-23T12:07:55.892Z,79.46
2023-10-23T12:10:25.613Z,78.69
2023-10-23T12:12:53.805Z,78.77
2023-10-23T12:15:21.572Z,78.01
2023-10-23T12:17:48.210Z,77.56
2023-10-23T12:20:15.807Z,78.06
2023-10-23T12:22:44.089Z,78.56
2023-10-23T12:25:11.953Z,78.38
2023-10-23T12:27:39.564Z,78.02
2023-10-23T12:30:09.200Z,77.82
2023-10-23T12:33:13.033Z,78.15
2023-10-23T12:35:23.508Z,78.01
2023-10-23T12:37:50.303Z,78.20
2023-10-23T12:40:16.801Z,77.92
2023-10-23T12:42:43.304Z,77.50
2023-10-23T12:45:10.270Z,78.14
2023-10-23T12:47:36.734Z,78.43
2023-10-23T12:50:04.696Z,78.30
2023-10-23T12:52:31.787Z,78.70
2023-10-23T12:54:58.325Z,77.35
2023-10-23T12:57:24.756Z,77.88
2023-10-23T12:59:51.240Z,77.91
2023-10-23T13:02:17.640Z,77.87
2023-10-23T13:07:11.218Z,78.14
2023-10-23T13:09:37.764Z,77.47
2023-10-23T13:12:04.590Z,76.55
2023-10-23T13:14:31.103Z,76.96
2023-10-23T13:16:57.596Z,76.41
2023-10-23T13:19:24.592Z,76.36
2023-10-23T13:21:51.010Z,77.02
2023-10-23T13:24:18.900Z,76.67
2023-10-23T13:26:45.281Z,76.32
2023-10-23T13:29:12.037Z,76.02
2023-10-23T13:31:38.630Z,76.32
2023-10-23T13:34:05.192Z,75.80
2023-10-23T13:36:31.568Z,75.94
2023-10-23T13:38:58.116Z,76.09
2023-10-23T13:41:24.503Z,75.97
2023-10-23T13:43:50.879Z,75.20
2023-10-23T13:46:19.198Z,76.12
2023-10-23T13:48:46.974Z,75.13
2023-10-23T13:51:14.246Z,75.22
2023-10-23T13:53:43.920Z,75.25
2023-10-23T13:56:10.299Z,75.41
2023-10-23T13:58:37.584Z,75.51
2023-10-23T14:01:04.962Z,75.65
2023-10-23T14:03:31.500Z,75.28
2023-10-23T14:05:57.974Z,75.11
2023-10-23T14:09:38.908Z,75.41
2023-10-23T14:11:57.043Z,74.90
2023-10-23T14:13:58.903Z,74.98
2023-10-23T14:16:25.974Z,74.52
2023-10-23T14:18:55.585Z,74.83
2023-10-23T14:21:22.058Z,75.20
2023-10-23T14:23:48.470Z,74.89
2023-10-23T14:26:15.403Z,74.45
2023-10-23T14:28:41.760Z,75.10
2023-10-23T14:31:08.183Z,75.40
2023-10-23T14:33:34.645Z,75.31
2023-10-23T14:36:01.104Z,75.98
2023-10-23T14:38:27.658Z,75.86
2023-10-23T14:41:02.527Z,75.97
2023-10-23T14:43:29.557Z,75.32
2023-10-23T14:45:56.036Z,75.49
2023-10-23T14:48:24.132Z,75.07
2023-10-23T14:50:53.751Z,74.87
2023-10-23T14:53:20.372Z,75.02
2023-10-23T14:55:47.126Z,74.99
2023-10-23T14:58:13.606Z,74.97
2023-10-23T15:00:43.843Z,74.98
2023-10-23T15:03:10.358Z,74.95
2023-10-23T15:05:36.843Z,74.56
2023-10-23T15:08:03.852Z,74.65
2023-10-23T15:10:30.287Z,74.49
2023-10-23T15:12:56.906Z,74.46
2023-10-23T15:15:23.567Z,74.27
2023-10-23T15:17:50.146Z,74.98
2023-10-23T15:20:16.580Z,74.62
2023-10-23T15:22:43.009Z,74.35
2023-10-23T15:25:10.015Z,74.44
2023-10-23T15:27:36.437Z,74.59
2023-10-23T15:30:04.391Z,74.48
2023-10-23T15:32:32.922Z,75.41
2023-10-23T15:34:59.943Z,74.90
2023-10-23T15:37:26.936Z,75.03
2023-10-23T15:39:53.458Z,75.50
2023-10-23T15:42:19.892Z,75.18
2023-10-23T15:44:47.009Z,75.17
2023-10-23T15:47:13.705Z,75.48
2023-10-23T15:49:40.648Z,76.02
2023-10-23T15:52:07.271Z,75.99
2023-10-23T15:54:33.911Z,76.31
2023-10-23T15:57:00.337Z,77.09
2023-10-23T15:59:26.750Z,77.17
2023-10-23T16:01:53.235Z,77.24
2023-10-23T16:04:19.829Z,77.92
2023-10-23T16:06:46.282Z,79.27
2023-10-23T16:09:22.114Z,80.21
2023-10-23T16:11:51.064Z,80.93
2023-10-23T16:14:17.634Z,81.60
2023-10-23T16:16:44.086Z,81.86
2023-10-23T16:19:10.589Z,81.82
2023-10-23T16:21:37.013Z,82.29
2023-10-23T16:24:04.565Z,82.85
2023-10-23T16:26:30.945Z,83.44
2023-10-23T16:28:57.387Z,84.34
2023-10-23T16:31:23.832Z,85.16
2023-10-23T16:33:50.360Z,85.55
2023-10-23T16:36:16.742Z,86.71
2023-10-23T16:38:43.121Z,87.65
2023-10-23T16:41:09.580Z,89.01
2023-10-23T16:43:40.928Z,90.88
2023-10-23T16:46:07.742Z,90.98
2023-10-23T16:48:34.212Z,91.66
2023-10-23T16:51:02.745Z,92.38
2023-10-23T16:53:29.108Z,92.71
2023-10-23T16:55:55.488Z,93.14
2023-10-23T16:58:25.085Z,93.97
2023-10-23T17:00:53.488Z,94.06
2023-10-23T17:03:20.977Z,94.85
2023-10-23T17:05:47.676Z,94.32
2023-10-23T17:08:14.045Z,95.11
2023-10-23T17:10:40.415Z,95.52
2023-10-23T17:13:06.909Z,95.82
2023-10-23T17:15:33.325Z,95.88
2023-10-23T17:18:00.580Z,95.11
2023-10-23T17:20:27.072Z,95.31
2023-10-23T17:22:53.446Z,94.68
2023-10-23T17:25:19.860Z,93.80
2023-10-23T17:27:46.338Z,94.26
2023-10-23T17:30:13.222Z,94.84
2023-10-23T17:32:40.175Z,95.88
2023-10-23T17:35:06.872Z,95.84
2023-10-23T17:37:33.299Z,94.94
2023-10-23T17:40:00.775Z,93.81
2023-10-23T17:42:27.255Z,94.04
2023-10-23T17:44:53.654Z,93.89
2023-10-23T17:47:20.125Z,94.51
2023-10-23T17:49:46.538Z,93.92
2023-10-23T17:52:12.959Z,93.43
2023-10-23T17:54:41.333Z,92.21
2023-10-23T17:57:07.973Z,92.64
2023-10-23T17:59:34.530Z,93.27
2023-10-23T18:02:01.736Z,93.33
2023-10-23T18:04:28.367Z,93.48
2023-10-23T18:06:54.838Z,92.80
2023-10-23T18:09:21.560Z,95.03
2023-10-23T18:11:48.044Z,94.59
2023-10-23T18:14:14.411Z,93.83
2023-10-23T18:16:41.087Z,94.43
2023-10-23T18:19:09.784Z,93.88
2023-10-23T18:21:36.240Z,93.35
2023-10-23T18:24:02.858Z,94.59
2023-10-23T18:26:29.247Z,93.86
2023-10-23T18:28:57.896Z,94.13
2023-10-23T18:31:26.606Z,92.98
2023-10-23T18:33:53.133Z,93.80
2023-10-23T18:36:19.651Z,92.52
2023-10-23T18:38:47.471Z,93.05
2023-10-23T18:41:18.107Z,92.85
2023-10-23T18:43:48.783Z,92.62
2023-10-23T18:46:15.816Z,92.03
2023-10-23T18:48:42.576Z,92.98
2023-10-23T18:51:12.771Z,92.83
2023-10-23T18:53:42.743Z,93.00
2023-10-23T18:56:09.644Z,93.96
2023-10-23T18:58:36.345Z,93.84
2023-10-23T19:01:03.408Z,94.04
2023-10-23T19:03:31.413Z,93.10
2023-10-23T19:05:58.055Z,92.32
2023-10-23T19:08:25.955Z,93.00
2023-10-23T19:10:52.396Z,92.14
2023-10-23T19:13:18.970Z,92.72
2023-10-23T19:15:45.416Z,93.09
2023-10-23T19:18:11.903Z,94.05
2023-10-23T19:20:39.428Z,94.29
2023-10-23T19:23:09.470Z,93.76
2023-10-23T19:25:36.041Z,94.14
2023-10-23T19:28:04.762Z,93.34
2023-10-23T19:30:33.197Z,93.68
2023-10-23T19:33:00.732Z,94.16
2023-10-23T19:35:27.831Z,92.93
2023-10-23T19:37:54.666Z,95.09
2023-10-23T19:40:21.668Z,95.75
2023-10-23T19:42:51.668Z,94.96
2023-10-23T19:45:18.644Z,94.14
2023-10-23T19:47:45.842Z,93.74
2023-10-23T19:50:15.996Z,93.60
2023-10-23T19:52:44.227Z,92.70
2023-10-23T19:55:43.128Z,94.00
2023-10-23T19:57:58.488Z,92.87
2023-10-23T20:00:25.017Z,94.04
2023-10-23T20:02:51.653Z,93.15
2023-10-23T20:05:18.321Z,93.88
2023-10-23T20:07:44.923Z,93.18
2023-10-23T20:10:14.569Z,93.33
2023-10-23T20:12:42.609Z,93.35
2023-10-23T20:15:10.727Z,94.05
2023-10-23T20:17:37.468Z,93.83
2023-10-23T20:20:04.993Z,93.60
2023-10-23T20:22:31.488Z,94.06
2023-10-23T20:24:57.926Z,93.50
2023-10-23T20:27:24.297Z,93.65
2023-10-23T20:29:50.659Z,93.67
2023-10-23T20:32:17.178Z,93.75
2023-10-23T20:34:43.636Z,93.24
2023-10-23T20:37:10.297Z,92.91
2023-10-23T20:39:36.746Z,93.70
2023-10-23T20:42:03.292Z,94.58
2023-10-23T20:44:35.050Z,94.43
2023-10-23T20:47:01.609Z,94.66
2023-10-23T20:49:28.130Z,95.23
2023-10-23T20:51:54.745Z,95.60
2023-10-23T20:54:21.391Z,96.63
2023-10-23T20:56:47.809Z,97.09
2023-10-23T20:59:14.216Z,97.30
2023-10-23T21:01:40.748Z,97.27
2023-10-23T21:04:07.219Z,96.94
2023-10-23T21:06:33.626Z,96.82
2023-10-23T21:09:00.019Z,96.39
2023-10-23T21:11:27.453Z,97.13
2023-10-23T21:13:54.309Z,96.54
2023-10-23T21:16:22.791Z,96.65
2023-10-23T21:18:49.285Z,96.59
2023-10-23T21:21:15.670Z,95.57
2023-10-23T21:23:42.082Z,95.92
2023-10-23T21:26:08.590Z,95.17
2023-10-23T21:28:35.009Z,95.49
2023-10-23T21:31:01.986Z,95.99
2023-10-23T21:33:29.327Z,95.48
2023-10-23T21:35:55.942Z,95.11
2023-10-23T21:38:22.753Z,95.26
2023-10-23T21:40:49.255Z,95.61
2023-10-23T21:43:16.153Z,96.00
2023-10-23T21:45:42.716Z,95.55
2023-10-23T21:48:09.674Z,94.94
2023-10-23T21:50:40.984Z,95.36
2023-10-23T21:53:07.822Z,95.41
2023-10-23T21:55:34.754Z,95.07
2023-10-23T21:58:02.739Z,95.02
2023-10-23T22:00:29.533Z,94.93
2023-10-23T22:02:57.302Z,94.39
2023-10-23T22:05:24.569Z,94.60
2023-10-23T22:07:52.227Z,93.89
2023-10-23T22:10:19.925Z,94.33
2023-10-23T22:12:46.983Z,94.14
2023-10-23T22:15:13.695Z,95.77
2023-10-23T22:17:40.326Z,95.05
2023-10-23T22:20:07.713Z,95.63
2023-10-23T22:22:34.200Z,95.06
2023-10-23T22:25:00.837Z,94.36
2023-10-23T22:27:27.323Z,94.76
2023-10-23T22:29:53.754Z,94.53
2023-10-23T22:32:20.274Z,94.65
2023-10-23T22:34:46.836Z,93.94
2023-10-23T22:38:00.588Z,93.56
2023-10-23T22:39:59.796Z,93.43
2023-10-23T22:42:26.627Z,93.03
2023-10-23T22:44:53.063Z,93.24
2023-10-23T22:47:19.723Z,92.93
2023-10-23T22:49:46.471Z,92.79
2023-10-23T22:52:13.275Z,93.12
2023-10-23T22:54:40.235Z,93.38
2023-10-23T22:57:08.031Z,92.60
2023-10-23T22:59:34.987Z,92.71
2023-10-23T23:02:01.933Z,93.54
2023-10-23T23:04:28.909Z,92.35
2023-10-23T23:06:59.604Z,92.31
2023-10-23T23:09:27.089Z,93.03
2023-10-23T23:11:53.837Z,93.12
2023-10-23T23:14:20.496Z,93.11
2023-10-23T23:16:49.722Z,92.79
2023-10-23T23:19:24.987Z,92.63
2023-10-23T23:21:54.901Z,92.30
2023-10-23T23:24:21.367Z,92.85
2023-10-23T23:26:48.204Z,92.67
2023-10-23T23:29:14.678Z,92.39
2023-10-23T23:31:41.180Z,92.87
2023-10-23T23:34:08.020Z,92.52
2023-10-23T23:36:34.507Z,93.51
2023-10-23T23:39:00.916Z,92.98
2023-10-23T23:41:27.640Z,93.42
2023-10-23T23:43:54.081Z,92.98
2023-10-23T23:46:20.588Z,93.05
2023-10-23T23:48:47.049Z,92.26
2023-10-23T23:51:13.489Z,91.45
2023-10-23T23:53:39.844Z,92.75
2023-10-23T23:56:06.336Z,92.54
2023-10-23T23:58:32.779Z,92.30
